createdAt,value
2023-04-04T00:00:25.581Z,67.17
2023-04-04T00:02:54.794Z,67.56
2023-04-04T00:05:21.302Z,66.14
2023-04-04T00:07:48.023Z,66.80
2023-04-04T00:10:15.038Z,67.21
2023-04-04T00:12:42.313Z,67.83
2023-04-04T00:15:09.285Z,67.69
2023-04-04T00:17:35.772Z,68.14
2023-04-04T00:20:04.499Z,66.67
2023-04-04T00:22:31.538Z,66.29
2023-04-04T00:24:58.151Z,66.26
2023-04-04T00:27:24.620Z,66.09
2023-04-04T00:29:51.091Z,67.41
2023-04-04T00:32:17.580Z,66.80
2023-04-04T00:34:44.070Z,66.58
2023-04-04T00:37:13.089Z,66.75
2023-04-04T00:39:39.697Z,66.84
2023-04-04T00:42:06.644Z,66.56
2023-04-04T00:44:35.704Z,66.66
2023-04-04T00:47:03.214Z,66.16
2023-04-04T00:49:29.693Z,65.55
2023-04-04T00:51:56.889Z,65.87
2023-04-04T00:54:23.495Z,66.62
2023-04-04T00:56:55.110Z,65.84
2023-04-04T00:59:27.784Z,66.22
2023-04-04T01:01:54.417Z,66.43
2023-04-04T01:04:21.247Z,67.00
2023-04-04T01:06:47.808Z,65.89
2023-04-04T01:09:14.257Z,66.64
2023-04-04T01:11:40.815Z,66.98
2023-04-04T01:14:07.438Z,67.05
2023-04-04T01:16:35.943Z,67.46
2023-04-04T01:19:02.969Z,68.73
2023-04-04T01:21:29.663Z,69.14
2023-04-04T01:24:01.347Z,67.91
2023-04-04T01:26:28.954Z,68.00
2023-04-04T01:28:56.461Z,68.68
2023-04-04T01:31:44.136Z,68.88
2023-04-04T01:34:38.070Z,68.97
2023-04-04T01:37:23.248Z,68.79
2023-04-04T01:39:54.060Z,69.39
2023-04-04T01:42:20.559Z,68.91
2023-04-04T01:44:47.300Z,68.47
2023-04-04T01:47:13.804Z,68.60
2023-04-04T01:49:40.885Z,69.28
2023-04-04T01:52:07.432Z,69.24
2023-04-04T01:54:35.918Z,70.21
2023-04-04T01:57:02.618Z,69.34
2023-04-04T01:59:29.310Z,68.96
2023-04-04T02:01:56.267Z,69.90
2023-04-04T02:04:23.227Z,69.59
2023-04-04T02:06:50.334Z,69.96
2023-04-04T02:09:16.847Z,69.32
2023-04-04T02:11:43.310Z,69.65
2023-04-04T02:14:09.852Z,70.04
2023-04-04T02:16:36.328Z,70.06
2023-04-04T02:19:02.935Z,70.71
2023-04-04T02:21:29.394Z,69.30
2023-04-04T02:23:55.828Z,70.38
2023-04-04T02:26:22.511Z,71.19
2023-04-04T02:28:48.971Z,71.77
2023-04-04T02:31:15.793Z,70.50
2023-04-04T02:33:42.284Z,68.95
2023-04-04T02:36:09.107Z,68.89
2023-04-04T02:38:35.552Z,68.74
2023-04-04T02:41:02.044Z,69.78
2023-04-04T02:43:28.479Z,69.35
2023-04-04T02:45:55.003Z,68.79
2023-04-04T02:48:21.477Z,69.54
2023-04-04T02:50:48.090Z,69.45
2023-04-04T02:53:14.614Z,70.35
2023-04-04T02:55:41.107Z,70.75
2023-04-04T02:58:07.648Z,70.04
2023-04-04T03:00:34.114Z,69.66
2023-04-04T03:03:00.683Z,71.30
2023-04-04T03:05:28.375Z,70.35
2023-04-04T03:07:58.265Z,69.45
2023-04-04T03:10:25.803Z,68.69
2023-04-04T03:12:52.339Z,69.81
2023-04-04T03:15:19.568Z,68.59
2023-04-04T03:17:46.740Z,68.41
2023-04-04T03:20:15.123Z,68.67
2023-04-04T03:22:42.213Z,68.84
2023-04-04T03:25:09.370Z,68.63
2023-04-04T03:27:35.910Z,69.88
2023-04-04T03:30:02.846Z,69.56
2023-04-04T03:32:29.802Z,68.93
2023-04-04T03:34:56.542Z,68.46
2023-04-04T03:37:23.274Z,68.86
2023-04-04T03:39:49.743Z,69.29
2023-04-04T03:42:16.838Z,69.45
2023-04-04T03:44:43.289Z,69.32
2023-04-04T03:47:09.803Z,68.20
2023-04-04T03:49:36.309Z,68.23
2023-04-04T03:52:03.287Z,68.87
2023-04-04T03:54:29.745Z,69.36
2023-04-04T03:56:57.078Z,68.82
2023-04-04T03:59:23.775Z,69.57
2023-04-04T04:01:50.695Z,70.08
2023-04-04T04:04:17.179Z,68.92
2023-04-04T04:06:44.115Z,68.95
2023-04-04T04:09:12.296Z,69.14
2023-04-04T04:11:38.828Z,68.24
2023-04-04T04:14:05.441Z,69.64
2023-04-04T04:16:33.023Z,68.88
2023-04-04T04:18:59.730Z,69.15
2023-04-04T04:21:26.262Z,70.16
2023-04-04T04:23:52.771Z,71.66
2023-04-04T04:26:19.299Z,71.04
2023-04-04T04:28:48.188Z,70.54
2023-04-04T04:31:14.856Z,70.88
2023-04-04T04:33:41.590Z,70.43
2023-04-04T04:36:08.318Z,70.09
2023-04-04T04:38:34.845Z,69.83
2023-04-04T04:41:01.907Z,68.67
2023-04-04T04:43:28.385Z,68.58
2023-04-04T04:45:54.980Z,68.25
2023-04-04T04:48:21.508Z,68.35
2023-04-04T04:50:48.387Z,68.44
2023-04-04T04:53:14.972Z,68.04
2023-04-04T04:55:43.167Z,68.55
2023-04-04T04:58:10.838Z,70.15
2023-04-04T05:00:38.306Z,70.02
2023-04-04T05:03:07.990Z,69.46
2023-04-04T05:05:34.779Z,69.33
2023-04-04T05:08:02.755Z,68.84
2023-04-04T05:10:30.040Z,69.58
2023-04-04T05:12:56.636Z,68.94
2023-04-04T05:15:23.287Z,68.48
2023-04-04T05:17:49.868Z,68.29
2023-04-04T05:20:16.359Z,68.51
2023-04-04T05:22:46.520Z,68.73
2023-04-04T05:25:13.376Z,69.21
2023-04-04T05:27:40.721Z,69.32
2023-04-04T05:30:07.967Z,68.69
2023-04-04T05:32:34.599Z,69.09
2023-04-04T05:35:01.395Z,69.07
2023-04-04T05:37:28.128Z,69.09
2023-04-04T05:39:55.239Z,68.96
2023-04-04T05:42:21.964Z,69.15
2023-04-04T05:44:48.483Z,69.81
2023-04-04T05:47:14.996Z,69.26
2023-04-04T05:49:41.571Z,68.77
2023-04-04T05:52:08.186Z,69.13
2023-04-04T05:54:34.680Z,68.90
2023-04-04T05:57:01.132Z,69.30
2023-04-04T05:59:28.695Z,69.84
2023-04-04T06:01:55.278Z,69.87
2023-04-04T06:04:21.810Z,70.16
2023-04-04T06:06:48.300Z,69.39
2023-04-04T06:09:14.784Z,68.12
2023-04-04T06:11:41.404Z,68.52
2023-04-04T06:14:08.749Z,67.67
2023-04-04T06:16:35.926Z,68.30
2023-04-04T06:19:02.894Z,67.95
2023-04-04T06:21:29.446Z,66.76
2023-04-04T06:23:55.925Z,67.90
2023-04-04T06:26:22.399Z,68.14
2023-04-04T06:28:49.816Z,67.59
2023-04-04T06:31:17.178Z,67.57
2023-04-04T06:33:43.905Z,68.37
2023-04-04T06:36:10.466Z,68.10
2023-04-04T06:38:37.022Z,67.66
2023-04-04T06:41:03.516Z,67.33
2023-04-04T06:43:30.975Z,66.57
2023-04-04T06:45:57.597Z,65.72
2023-04-04T06:48:24.057Z,63.65
2023-04-04T06:50:50.499Z,65.94
2023-04-04T06:53:17.260Z,65.11
2023-04-04T06:55:43.748Z,63.06
2023-04-04T06:58:10.510Z,62.56
2023-04-04T07:00:37.169Z,62.92
2023-04-04T07:03:04.087Z,62.39
2023-04-04T07:05:32.245Z,63.23
2023-04-04T07:07:58.849Z,62.73
2023-04-04T07:10:27.536Z,60.70
2023-04-04T07:12:53.997Z,61.95
2023-04-04T07:15:20.478Z,61.60
2023-04-04T07:17:47.283Z,63.37
2023-04-04T07:20:13.915Z,61.32
2023-04-04T07:22:41.405Z,62.41
2023-04-04T07:25:08.791Z,62.10
2023-04-04T07:27:36.076Z,60.03
2023-04-04T07:30:04.309Z,59.38
2023-04-04T07:32:31.138Z,58.10
2023-04-04T07:34:58.026Z,57.68
2023-04-04T07:37:26.614Z,57.79
2023-04-04T07:39:53.200Z,59.13
2023-04-04T07:42:23.246Z,57.13
2023-04-04T07:44:50.577Z,57.08
2023-04-04T07:47:17.717Z,56.97
2023-04-04T07:49:44.895Z,56.82
2023-04-04T07:52:11.383Z,54.39
2023-04-04T07:54:38.099Z,57.54
2023-04-04T07:57:09.770Z,57.01
2023-04-04T07:59:37.234Z,57.79
2023-04-04T08:02:03.854Z,57.43
2023-04-04T08:04:30.709Z,56.63
2023-04-04T08:06:57.578Z,54.78
2023-04-04T08:09:24.957Z,54.19
2023-04-04T08:11:51.688Z,53.96
2023-04-04T08:14:18.228Z,53.23
2023-04-04T08:16:44.681Z,52.40
2023-04-04T08:19:11.510Z,50.72
2023-04-04T08:21:38.159Z,50.34
2023-04-04T08:24:05.108Z,51.48
2023-04-04T08:26:31.978Z,51.14
2023-04-04T08:28:58.627Z,50.60
2023-04-04T08:31:25.191Z,48.82
2023-04-04T08:33:52.507Z,48.19
2023-04-04T08:36:19.693Z,46.50
2023-04-04T08:38:46.156Z,46.99
2023-04-04T08:41:13.413Z,48.64
2023-04-04T08:43:41.620Z,45.60
2023-04-04T08:46:11.526Z,46.07
2023-04-04T08:48:39.366Z,45.39
2023-04-04T08:51:09.194Z,45.98
2023-04-04T08:53:37.172Z,44.95
2023-04-04T08:56:04.523Z,43.60
2023-04-04T08:58:31.171Z,43.70
2023-04-04T09:00:57.743Z,43.72
2023-04-04T09:03:26.708Z,40.68
2023-04-04T09:05:56.680Z,40.68
2023-04-04T09:08:26.123Z,40.49
2023-04-04T09:10:53.186Z,40.86
2023-04-04T09:13:19.959Z,42.51
2023-04-04T09:15:52.292Z,42.18
2023-04-04T09:18:19.104Z,41.42
2023-04-04T09:20:48.950Z,40.64
2023-04-04T09:23:23.858Z,41.19
2023-04-04T09:28:24.632Z,41.72
2023-04-04T09:30:52.194Z,40.59
2023-04-04T09:33:21.602Z,40.16
2023-04-04T09:35:54.631Z,40.19
2023-04-04T09:38:23.737Z,40.18
2023-04-04T09:40:52.643Z,39.40
2023-04-04T09:43:19.576Z,37.41
2023-04-04T09:45:46.343Z,37.81
2023-04-04T09:48:13.670Z,39.07
2023-04-04T09:50:49.603Z,38.57
2023-04-04T09:53:19.394Z,39.05
2023-04-04T09:55:54.287Z,39.20
2023-04-04T09:58:29.005Z,38.66
2023-04-04T10:00:57.477Z,37.90
2023-04-04T10:03:24.423Z,36.36
2023-04-04T10:06:00.266Z,37.56
2023-04-04T10:08:28.503Z,36.59
2023-04-04T10:11:11.391Z,36.60
2023-04-04T10:13:43.776Z,36.56
2023-04-04T10:16:11.153Z,36.20
2023-04-04T10:18:38.123Z,37.10
2023-04-04T10:23:37.037Z,37.09
2023-04-04T10:26:03.521Z,38.24
2023-04-04T10:28:30.085Z,36.32
2023-04-04T10:31:07.112Z,38.28
2023-04-04T10:34:12.464Z,36.29
2023-04-04T10:36:47.209Z,35.87
2023-04-04T10:39:17.611Z,34.47
2023-04-04T10:41:46.259Z,33.88
2023-04-04T10:44:20.984Z,33.79
2023-04-04T10:46:51.040Z,34.92
2023-04-04T10:49:18.127Z,35.88
2023-04-04T10:51:54.851Z,34.74
2023-04-04T10:54:23.500Z,35.83
2023-04-04T10:56:50.182Z,35.62
2023-04-04T10:59:20.197Z,35.06
2023-04-04T11:01:55.052Z,34.84
2023-04-04T11:04:31.092Z,34.19
2023-04-04T11:07:05.271Z,35.44
2023-04-04T11:09:54.170Z,34.15
2023-04-04T11:12:23.985Z,34.80
2023-04-04T11:15:11.467Z,33.90
2023-04-04T11:17:43.632Z,33.78
2023-04-04T11:20:11.706Z,31.95
2023-04-04T11:22:42.735Z,31.81
2023-04-04T11:25:24.918Z,33.86
2023-04-04T11:27:54.972Z,33.51
2023-04-04T11:30:21.559Z,31.35
2023-04-04T11:32:59.762Z,30.90
2023-04-04T11:35:30.636Z,30.45
2023-04-04T11:37:57.060Z,31.34
2023-04-04T11:40:41.685Z,30.04
2023-04-04T11:43:12.092Z,29.40
2023-04-04T11:45:44.558Z,29.87
2023-04-04T11:48:11.222Z,29.30
2023-04-04T11:50:43.459Z,32.14
2023-04-04T11:53:11.319Z,32.78
2023-04-04T11:55:47.257Z,32.93
2023-04-04T11:58:16.137Z,34.14
2023-04-04T12:00:44.197Z,32.99
2023-04-04T12:03:12.341Z,33.41
2023-04-04T12:05:40.342Z,32.50
2023-04-04T12:08:08.761Z,33.00
2023-04-04T12:10:36.242Z,33.60
2023-04-04T12:13:07.276Z,33.26
2023-04-04T12:15:37.892Z,33.49
2023-04-04T12:18:07.550Z,32.72
2023-04-04T12:20:34.195Z,32.73
2023-04-04T12:23:00.868Z,32.99
2023-04-04T12:25:28.549Z,32.45
2023-04-04T12:27:55.588Z,32.38
2023-04-04T12:30:22.305Z,32.05
2023-04-04T12:32:50.165Z,33.55
2023-04-04T12:35:17.100Z,32.16
2023-04-04T12:37:58.882Z,33.44
2023-04-04T12:40:30.436Z,34.21
2023-04-04T12:42:57.342Z,33.29
2023-04-04T12:45:26.236Z,33.38
2023-04-04T12:47:54.195Z,33.36
2023-04-04T12:50:27.404Z,34.14
2023-04-04T12:52:57.433Z,33.48
2023-04-04T12:55:31.559Z,33.20
2023-04-04T12:58:00.858Z,33.94
2023-04-04T13:00:27.534Z,34.00
2023-04-04T13:02:55.872Z,33.14
2023-04-04T13:05:25.798Z,32.46
2023-04-04T13:08:05.514Z,31.95
2023-04-04T13:10:57.754Z,31.54
2023-04-04T13:14:00.639Z,31.55
2023-04-04T13:16:33.105Z,32.75
2023-04-04T13:18:59.726Z,32.00
2023-04-04T13:21:26.287Z,31.51
2023-04-04T13:23:52.972Z,32.69
2023-04-04T13:26:19.458Z,33.43
2023-04-04T13:28:46.174Z,32.28
2023-04-04T13:31:13.468Z,31.13
2023-04-04T13:33:40.286Z,32.37
2023-04-04T13:36:07.015Z,32.72
2023-04-04T13:38:33.581Z,31.36
2023-04-04T13:41:00.710Z,31.37
2023-04-04T13:43:27.760Z,31.35
2023-04-04T13:45:55.752Z,32.07
2023-04-04T13:48:22.800Z,31.02
2023-04-04T13:50:53.256Z,30.13
2023-04-04T13:53:20.159Z,31.72
2023-04-04T13:56:12.973Z,32.46
2023-04-04T13:58:33.305Z,34.55
2023-04-04T14:01:03.451Z,33.29
2023-04-04T14:03:31.442Z,33.89
2023-04-04T14:06:00.337Z,33.15
2023-04-04T14:08:31.034Z,33.43
2023-04-04T14:10:57.706Z,32.81
2023-04-04T14:13:24.162Z,33.10
2023-04-04T14:15:50.978Z,32.41
2023-04-04T14:18:17.496Z,32.93
2023-04-04T14:20:44.126Z,33.87
2023-04-04T14:23:10.747Z,32.96
2023-04-04T14:25:37.208Z,32.75
2023-04-04T14:28:03.857Z,32.98
2023-04-04T14:30:30.532Z,32.99
2023-04-04T14:32:57.037Z,32.22
2023-04-04T14:35:23.627Z,31.37
2023-04-04T14:37:50.101Z,31.64
2023-04-04T14:40:16.789Z,32.86
2023-04-04T14:42:43.249Z,33.43
2023-04-04T14:45:11.355Z,32.95
2023-04-04T14:47:37.972Z,32.45
2023-04-04T14:50:04.937Z,33.70
2023-04-04T14:52:31.672Z,33.76
2023-04-04T14:54:58.271Z,33.83
2023-04-04T14:57:24.929Z,33.74
2023-04-04T14:59:51.450Z,34.82
2023-04-04T15:02:18.284Z,35.59
2023-04-04T15:04:44.909Z,34.41
2023-04-04T15:07:11.498Z,35.21
2023-04-04T15:09:37.946Z,35.16
2023-04-04T15:12:06.701Z,35.00
2023-04-04T15:14:33.202Z,35.11
2023-04-04T15:16:59.960Z,36.36
2023-04-04T15:19:26.407Z,36.60
2023-04-04T15:21:53.322Z,36.07
2023-04-04T15:24:19.746Z,35.90
2023-04-04T15:26:46.492Z,36.75
2023-04-04T15:29:14.650Z,36.93
2023-04-04T15:31:41.504Z,36.71
2023-04-04T15:34:09.498Z,36.22
2023-04-04T15:36:36.551Z,37.54
2023-04-04T15:39:03.523Z,35.58
2023-04-04T15:41:30.161Z,35.77
2023-04-04T15:43:56.646Z,36.48
2023-04-04T15:46:23.226Z,36.04
2023-04-04T15:48:52.054Z,36.21
2023-04-04T15:51:18.666Z,35.77
2023-04-04T15:53:45.161Z,36.73
2023-04-04T15:56:11.860Z,37.03
2023-04-04T15:58:38.314Z,36.38
2023-04-04T16:01:06.598Z,36.32
2023-04-04T16:03:33.148Z,36.36
2023-04-04T16:06:00.759Z,37.00
2023-04-04T16:08:27.234Z,36.54
2023-04-04T16:10:53.762Z,36.72
2023-04-04T16:13:20.446Z,36.92
2023-04-04T16:15:50.184Z,36.70
2023-04-04T16:18:16.676Z,35.64
2023-04-04T16:20:43.138Z,35.04
2023-04-04T16:23:09.645Z,36.36
2023-04-04T16:25:36.386Z,36.34
2023-04-04T16:28:03.938Z,35.64
2023-04-04T16:30:30.430Z,36.32
2023-04-04T16:32:56.950Z,36.67
2023-04-04T16:35:23.516Z,36.19
2023-04-04T16:37:49.991Z,35.96
2023-04-04T16:40:16.618Z,35.97
2023-04-04T16:42:43.073Z,37.00
2023-04-04T16:45:10.365Z,36.73
2023-04-04T16:47:37.061Z,37.11
2023-04-04T16:50:04.869Z,36.97
2023-04-04T16:52:31.368Z,36.27
2023-04-04T16:54:57.821Z,36.71
2023-04-04T16:57:24.450Z,35.80
2023-04-04T16:59:50.898Z,35.66
2023-04-04T17:02:17.481Z,36.15
2023-04-04T17:04:44.562Z,36.34
2023-04-04T17:07:11.151Z,35.35
2023-04-04T17:09:41.337Z,35.68
2023-04-04T17:12:08.195Z,36.38
2023-04-04T17:14:35.567Z,35.70
2023-04-04T17:17:02.157Z,35.65
2023-04-04T17:19:30.325Z,36.25
2023-04-04T17:21:58.206Z,36.32
2023-04-04T17:24:25.618Z,36.89
2023-04-04T17:26:52.385Z,36.38
2023-04-04T17:29:18.967Z,36.80
2023-04-04T17:31:48.960Z,37.04
2023-04-04T17:34:16.190Z,37.41
2023-04-04T17:36:42.968Z,36.80
2023-04-04T17:39:09.596Z,37.07
2023-04-04T17:41:36.298Z,37.91
2023-04-04T17:44:03.768Z,38.10
2023-04-04T17:46:31.326Z,38.39
2023-04-04T17:48:57.857Z,38.80
2023-04-04T17:51:24.342Z,38.92
2023-04-04T17:53:51.254Z,39.13
2023-04-04T17:56:18.826Z,39.33
2023-04-04T17:58:45.759Z,39.64
2023-04-04T18:01:13.767Z,40.09
2023-04-04T18:03:40.554Z,40.99
2023-04-04T18:06:07.167Z,40.19
2023-04-04T18:08:33.610Z,40.25
2023-04-04T18:11:00.146Z,41.92
2023-04-04T18:13:26.707Z,42.34
2023-04-04T18:15:53.343Z,43.01
2023-04-04T18:18:21.309Z,43.71
2023-04-04T18:20:48.278Z,43.12
2023-04-04T18:23:16.798Z,42.79
2023-04-04T18:25:43.304Z,42.67
2023-04-04T18:28:11.631Z,42.93
2023-04-04T18:30:39.072Z,44.82
2023-04-04T18:33:06.448Z,44.67
2023-04-04T18:35:33.042Z,44.98
2023-04-04T18:38:03.003Z,45.26
2023-04-04T18:40:29.540Z,45.15
2023-04-04T18:42:56.487Z,45.25
2023-04-04T18:45:29.881Z,45.55
2023-04-04T18:48:01.393Z,45.66
2023-04-04T18:50:28.598Z,45.53
2023-04-04T18:52:56.801Z,45.91
2023-04-04T18:55:23.278Z,45.58
2023-04-04T18:57:49.815Z,46.32
2023-04-04T19:00:16.657Z,47.63
2023-04-04T19:02:43.203Z,48.66
2023-04-04T19:05:12.316Z,47.90
2023-04-04T19:07:40.275Z,47.49
2023-04-04T19:10:07.407Z,47.93
2023-04-04T19:12:34.058Z,47.64
2023-04-04T19:15:01.363Z,48.15
2023-04-04T19:17:27.980Z,48.36
2023-04-04T19:19:54.425Z,48.46
2023-04-04T19:22:20.851Z,48.57
2023-04-04T19:24:47.316Z,48.40
2023-04-04T19:27:13.790Z,50.95
2023-04-04T19:29:40.414Z,50.57
2023-04-04T19:32:13.872Z,50.59
2023-04-04T19:34:42.610Z,49.98
2023-04-04T19:37:13.303Z,50.71
2023-04-04T19:39:42.187Z,52.40
2023-04-04T19:42:09.325Z,51.34
2023-04-04T19:44:42.866Z,50.94
2023-04-04T19:47:10.538Z,51.16
2023-04-04T19:49:38.182Z,51.20
2023-04-04T19:52:05.737Z,53.01
2023-04-04T19:54:42.951Z,52.52
2023-04-04T19:57:17.547Z,51.84
2023-04-04T20:00:13.578Z,52.05
2023-04-04T20:02:51.466Z,52.24
2023-04-04T20:05:41.541Z,53.19
2023-04-04T20:08:09.671Z,54.16
2023-04-04T20:10:38.285Z,53.26
2023-04-04T20:13:08.527Z,53.51
2023-04-04T20:15:47.665Z,53.80
2023-04-04T20:18:24.467Z,53.37
2023-04-04T20:21:07.207Z,53.65
2023-04-04T20:23:49.569Z,53.71
2023-04-04T20:26:35.100Z,53.68
2023-04-04T20:29:12.040Z,53.94
2023-04-04T20:31:45.559Z,53.18
2023-04-04T20:34:41.379Z,54.49
2023-04-04T20:37:26.613Z,54.51
2023-04-04T20:40:01.127Z,55.88
2023-04-04T20:42:31.057Z,55.97
2023-04-04T20:45:10.282Z,55.31
2023-04-04T20:47:45.757Z,54.81
2023-04-04T20:50:18.487Z,54.74
2023-04-04T20:52:59.719Z,55.90
2023-04-04T20:55:28.421Z,56.93
2023-04-04T20:58:34.343Z,56.48
2023-04-04T21:01:05.522Z,56.14
2023-04-04T21:03:35.621Z,56.53
2023-04-04T21:06:11.566Z,56.95
2023-04-04T21:08:49.746Z,56.58
2023-04-04T21:11:30.212Z,56.78
2023-04-04T21:13:57.847Z,56.89
2023-04-04T21:16:26.648Z,56.71
2023-04-04T21:18:57.915Z,57.32
2023-04-04T21:21:24.386Z,56.70
2023-04-04T21:23:55.501Z,57.55
2023-04-04T21:26:28.806Z,56.75
2023-04-04T21:28:56.916Z,56.29
2023-04-04T21:31:26.223Z,56.48
2023-04-04T21:33:54.698Z,56.43
2023-04-04T21:36:24.121Z,56.84
2023-04-04T21:38:52.138Z,56.12
2023-04-04T21:41:25.869Z,56.32
2023-04-04T21:43:57.138Z,56.38
2023-04-04T21:46:25.731Z,58.52
2023-04-04T21:48:53.157Z,58.21
2023-04-04T21:51:19.864Z,58.60
2023-04-04T21:53:46.786Z,58.33
2023-04-04T21:56:13.996Z,57.09
2023-04-04T21:58:41.200Z,57.36
2023-04-04T22:01:08.158Z,57.21
2023-04-04T22:03:34.902Z,58.20
2023-04-04T22:06:01.375Z,58.13
2023-04-04T22:08:27.945Z,58.51
2023-04-04T22:10:54.486Z,58.07
2023-04-04T22:13:22.678Z,58.29
2023-04-04T22:15:49.816Z,58.32
2023-04-04T22:18:16.949Z,58.62
2023-04-04T22:20:47.662Z,58.15
2023-04-04T22:23:15.601Z,57.51
2023-04-04T22:25:42.164Z,58.26
2023-04-04T22:28:09.179Z,58.54
2023-04-04T22:30:38.787Z,57.59
2023-04-04T22:33:05.825Z,58.34
2023-04-04T22:35:32.908Z,59.11
2023-04-04T22:38:00.820Z,60.39
2023-04-04T22:40:30.709Z,60.23
2023-04-04T22:42:57.540Z,59.09
2023-04-04T22:45:24.667Z,58.78
2023-04-04T22:47:51.424Z,59.82
2023-04-04T22:50:24.490Z,60.57
2023-04-04T22:52:52.412Z,59.50
2023-04-04T22:55:20.844Z,58.63
2023-04-04T22:57:47.349Z,58.62
2023-04-04T23:00:14.719Z,59.90
2023-04-04T23:02:43.187Z,59.53
2023-04-04T23:05:11.332Z,58.94
2023-04-04T23:07:38.483Z,59.19
2023-04-04T23:10:06.375Z,59.80
2023-04-04T23:12:32.877Z,60.03
2023-04-04T23:15:01.502Z,60.70
2023-04-04T23:17:28.121Z,61.03
2023-04-04T23:19:55.110Z,60.64
2023-04-04T23:22:21.761Z,59.65
2023-04-04T23:24:48.558Z,60.28
2023-04-04T23:27:16.013Z,59.54
2023-04-04T23:29:42.953Z,59.91
2023-04-04T23:32:10.303Z,59.51
2023-04-04T23:34:37.818Z,59.98
2023-04-04T23:37:05.026Z,59.67
2023-04-04T23:39:31.811Z,60.31
2023-04-04T23:42:01.150Z,60.33
2023-04-04T23:44:27.650Z,60.23
2023-04-04T23:46:54.274Z,60.11
2023-04-04T23:49:20.805Z,60.41
2023-04-04T23:51:47.332Z,60.66
2023-04-04T23:54:13.810Z,61.12
2023-04-04T23:56:40.782Z,61.83
2023-04-04T23:59:07.457Z,61.50
